sensor_id;sensor_type;location;lat;lon;timestamp;pressure;altitude;pressure_sealevel;temperature;humidity
76590;BME280;65471;55.908;37.880;2022-12-07T00:02:03;101006.84;;;-10.15;71.39
76590;BME280;65471;55.908;37.880;2022-12-07T00:04:30;101003.69;;;-10.24;72.39
76590;BME280;65471;55.908;37.880;2022-12-07T00:06:57;101010.63;;;-10.23;73.45
76590;BME280;65471;55.908;37.880;2022-12-07T00:09:24;101011.84;;;-10.11;72.27
76590;BME280;65471;55.908;37.880;2022-12-07T00:11:51;101002.72;;;-10.21;71.87
76590;BME280;65471;55.908;37.880;2022-12-07T00:14:19;101006.91;;;-10.17;73.45
76590;BME280;65471;55.908;37.880;2022-12-07T00:16:48;101004.22;;;-10.15;72.10
76590;BME280;65471;55.908;37.880;2022-12-07T00:19:16;101018.13;;;-10.15;71.72
76590;BME280;65471;55.908;37.880;2022-12-07T00:21:43;101008.94;;;-10.24;71.59
76590;BME280;65471;55.908;37.880;2022-12-07T00:24:11;101013.19;;;-10.21;72.39
76590;BME280;65471;55.908;37.880;2022-12-07T00:26:39;101012.41;;;-10.23;72.91
76590;BME280;65471;55.908;37.880;2022-12-07T00:29:20;101012.97;;;-10.35;72.72
76590;BME280;65471;55.908;37.880;2022-12-07T00:31:48;101014.59;;;-10.33;71.87
76590;BME280;65471;55.908;37.880;2022-12-07T00:34:18;101010.91;;;-10.29;71.94
76590;BME280;65471;55.908;37.880;2022-12-07T00:36:45;101012.13;;;-10.36;72.89
76590;BME280;65471;55.908;37.880;2022-12-07T00:39:13;101015.06;;;-10.44;72.26
76590;BME280;65471;55.908;37.880;2022-12-07T00:41:40;101013.72;;;-10.52;73.83
76590;BME280;65471;55.908;37.880;2022-12-07T00:44:07;101019.63;;;-10.49;73.42
76590;BME280;65471;55.908;37.880;2022-12-07T00:46:34;101015.97;;;-10.45;72.33
76590;BME280;65471;55.908;37.880;2022-12-07T00:49:00;101022.38;;;-10.52;72.29
76590;BME280;65471;55.908;37.880;2022-12-07T00:51:27;101025.94;;;-10.53;71.81
76590;BME280;65471;55.908;37.880;2022-12-07T00:53:54;101012.06;;;-10.55;72.41
76590;BME280;65471;55.908;37.880;2022-12-07T00:56:24;101018.47;;;-10.62;72.56
76590;BME280;65471;55.908;37.880;2022-12-07T00:59:02;101015.16;;;-10.66;72.75
76590;BME280;65471;55.908;37.880;2022-12-07T01:01:30;101015.09;;;-10.64;72.05
76590;BME280;65471;55.908;37.880;2022-12-07T01:03:58;101011.88;;;-10.71;72.31
76590;BME280;65471;55.908;37.880;2022-12-07T01:06:28;101017.53;;;-10.82;73.95
76590;BME280;65471;55.908;37.880;2022-12-07T01:08:55;101008.13;;;-10.86;73.17
76590;BME280;65471;55.908;37.880;2022-12-07T01:11:25;101012.56;;;-10.88;73.22
76590;BME280;65471;55.908;37.880;2022-12-07T01:13:54;101011.97;;;-10.95;73.70
76590;BME280;65471;55.908;37.880;2022-12-07T01:16:21;101013.41;;;-10.87;72.66
76590;BME280;65471;55.908;37.880;2022-12-07T01:18:51;101017.88;;;-10.89;72.86
76590;BME280;65471;55.908;37.880;2022-12-07T01:21:20;101010.22;;;-10.94;73.99
76590;BME280;65471;55.908;37.880;2022-12-07T01:23:48;101017.03;;;-10.90;72.60
76590;BME280;65471;55.908;37.880;2022-12-07T01:26:17;101016.34;;;-10.95;72.49
76590;BME280;65471;55.908;37.880;2022-12-07T01:28:44;101002.09;;;-11.08;74.19
76590;BME280;65471;55.908;37.880;2022-12-07T01:31:14;101014.78;;;-10.99;73.03
76590;BME280;65471;55.908;37.880;2022-12-07T01:33:47;101010.66;;;-11.05;73.50
76590;BME280;65471;55.908;37.880;2022-12-07T01:38:53;101017.09;;;-11.14;73.50
76590;BME280;65471;55.908;37.880;2022-12-07T01:41:26;101014.50;;;-11.14;73.83
76590;BME280;65471;55.908;37.880;2022-12-07T01:46:38;101002.41;;;-11.16;73.17
76590;BME280;65471;55.908;37.880;2022-12-07T01:49:08;101008.44;;;-11.14;72.81
76590;BME280;65471;55.908;37.880;2022-12-07T01:51:37;101011.22;;;-11.19;72.67
76590;BME280;65471;55.908;37.880;2022-12-07T01:54:07;101002.47;;;-11.18;73.43
76590;BME280;65471;55.908;37.880;2022-12-07T01:56:36;100997.66;;;-11.29;73.63
76590;BME280;65471;55.908;37.880;2022-12-07T01:59:04;100997.66;;;-11.29;73.33
76590;BME280;65471;55.908;37.880;2022-12-07T02:01:30;101001.09;;;-11.26;73.02
76590;BME280;65471;55.908;37.880;2022-12-07T02:03:58;101003.16;;;-11.35;73.94
76590;BME280;65471;55.908;37.880;2022-12-07T02:06:25;100999.97;;;-11.43;73.79
76590;BME280;65471;55.908;37.880;2022-12-07T02:09:07;100995.19;;;-11.32;73.35
76590;BME280;65471;55.908;37.880;2022-12-07T02:11:34;100992.81;;;-11.38;73.24
76590;BME280;65471;55.908;37.880;2022-12-07T02:14:01;100987.53;;;-11.36;73.40
76590;BME280;65471;55.908;37.880;2022-12-07T02:21:52;100988.88;;;-11.48;74.49
76590;BME280;65471;55.908;37.880;2022-12-07T02:30:10;100981.00;;;-11.47;73.57
76590;BME280;65471;55.908;37.880;2022-12-07T02:32:43;100978.38;;;-11.47;73.49
76590;BME280;65471;55.908;37.880;2022-12-07T02:35:26;100985.53;;;-11.52;73.72
76590;BME280;65471;55.908;37.880;2022-12-07T02:43:25;100982.28;;;-11.57;74.85
76590;BME280;65471;55.908;37.880;2022-12-07T02:45:56;100981.47;;;-11.59;74.03
76590;BME280;65471;55.908;37.880;2022-12-07T02:48:26;100991.84;;;-11.57;73.99
76590;BME280;65471;55.908;37.880;2022-12-07T02:50:54;100984.38;;;-11.67;75.53
76590;BME280;65471;55.908;37.880;2022-12-07T03:06:57;100981.22;;;-11.75;74.82
76590;BME280;65471;55.908;37.880;2022-12-07T03:09:28;100981.03;;;-11.70;74.35
76590;BME280;65471;55.908;37.880;2022-12-07T03:12:22;100970.28;;;-11.85;75.11
76590;BME280;65471;55.908;37.880;2022-12-07T03:15:13;100977.22;;;-11.84;75.39
76590;BME280;65471;55.908;37.880;2022-12-07T03:17:43;100987.63;;;-11.84;74.81
76590;BME280;65471;55.908;37.880;2022-12-07T03:20:14;100991.97;;;-11.83;74.88
76590;BME280;65471;55.908;37.880;2022-12-07T03:22:43;100994.59;;;-11.84;76.15
76590;BME280;65471;55.908;37.880;2022-12-07T03:25:13;100993.69;;;-11.83;74.90
76590;BME280;65471;55.908;37.880;2022-12-07T03:27:59;100994.59;;;-11.84;76.31
76590;BME280;65471;55.908;37.880;2022-12-07T03:30:33;100993.63;;;-11.82;74.91
76590;BME280;65471;55.908;37.880;2022-12-07T03:33:07;100995.66;;;-11.88;74.95
76590;BME280;65471;55.908;37.880;2022-12-07T03:35:40;100988.25;;;-11.99;76.24
76590;BME280;65471;55.908;37.880;2022-12-07T03:38:22;100997.91;;;-12.01;75.96
76590;BME280;65471;55.908;37.880;2022-12-07T03:41:00;100985.88;;;-12.05;76.16
76590;BME280;65471;55.908;37.880;2022-12-07T03:43:29;100993.63;;;-12.04;77.15
76590;BME280;65471;55.908;37.880;2022-12-07T03:49:00;100987.03;;;-12.14;77.16
76590;BME280;65471;55.908;37.880;2022-12-07T03:54:13;100994.47;;;-12.27;76.98
76590;BME280;65471;55.908;37.880;2022-12-07T03:56:42;100989.13;;;-12.47;77.54
76590;BME280;65471;55.908;37.880;2022-12-07T03:59:12;100992.22;;;-12.61;77.48
76590;BME280;65471;55.908;37.880;2022-12-07T04:01:53;100988.88;;;-12.65;77.53
76590;BME280;65471;55.908;37.880;2022-12-07T04:04:22;100991.63;;;-12.70;78.34
76590;BME280;65471;55.908;37.880;2022-12-07T04:06:50;100995.88;;;-12.67;78.46
76590;BME280;65471;55.908;37.880;2022-12-07T04:09:17;100988.16;;;-12.70;77.88
76590;BME280;65471;55.908;37.880;2022-12-07T04:11:44;100990.88;;;-12.73;78.96
76590;BME280;65471;55.908;37.880;2022-12-07T04:14:12;100983.38;;;-12.82;78.27
76590;BME280;65471;55.908;37.880;2022-12-07T04:16:54;100990.06;;;-12.75;79.01
76590;BME280;65471;55.908;37.880;2022-12-07T04:19:24;100983.97;;;-12.74;79.29
76590;BME280;65471;55.908;37.880;2022-12-07T04:21:51;100981.38;;;-12.74;78.64
76590;BME280;65471;55.908;37.880;2022-12-07T04:24:19;100981.69;;;-12.83;79.26
76590;BME280;65471;55.908;37.880;2022-12-07T04:26:48;100976.78;;;-12.93;80.10
76590;BME280;65471;55.908;37.880;2022-12-07T04:29:16;100971.63;;;-12.94;79.20
76590;BME280;65471;55.908;37.880;2022-12-07T04:31:44;100974.22;;;-12.94;79.48
76590;BME280;65471;55.908;37.880;2022-12-07T04:34:11;100980.50;;;-13.00;79.83
76590;BME280;65471;55.908;37.880;2022-12-07T04:36:39;100976.78;;;-12.93;78.36
76590;BME280;65471;55.908;37.880;2022-12-07T04:39:07;100983.22;;;-13.03;79.82
76590;BME280;65471;55.908;37.880;2022-12-07T04:41:34;100982.41;;;-13.05;79.85
76590;BME280;65471;55.908;37.880;2022-12-07T04:44:03;100967.09;;;-13.14;80.38
76590;BME280;65471;55.908;37.880;2022-12-07T04:46:31;100978.91;;;-13.04;79.26
76590;BME280;65471;55.908;37.880;2022-12-07T04:48:59;100980.72;;;-13.06;79.60
76590;BME280;65471;55.908;37.880;2022-12-07T04:51:28;100969.53;;;-13.10;79.59
76590;BME280;65471;55.908;37.880;2022-12-07T04:53:56;100980.38;;;-13.22;80.67
76590;BME280;65471;55.908;37.880;2022-12-07T04:56:23;100972.34;;;-13.16;80.97
76590;BME280;65471;55.908;37.880;2022-12-07T04:58:52;100981.25;;;-13.23;80.54
76590;BME280;65471;55.908;37.880;2022-12-07T05:01:20;100975.13;;;-13.21;80.84
76590;BME280;65471;55.908;37.880;2022-12-07T05:03:48;100972.63;;;-13.24;80.24
76590;BME280;65471;55.908;37.880;2022-12-07T05:06:15;100982.22;;;-13.26;79.67
76590;BME280;65471;55.908;37.880;2022-12-07T05:08:41;100974.28;;;-13.23;80.28
76590;BME280;65471;55.908;37.880;2022-12-07T05:11:10;100974.59;;;-13.32;80.36
76590;BME280;65471;55.908;37.880;2022-12-07T05:13:55;100980.69;;;-13.33;80.77
76590;BME280;65471;55.908;37.880;2022-12-07T05:16:22;100984.91;;;-13.29;80.32
76590;BME280;65471;55.908;37.880;2022-12-07T05:18:49;100979.59;;;-13.26;80.24
76590;BME280;65471;55.908;37.880;2022-12-07T05:21:16;100981.47;;;-13.29;79.94
76590;BME280;65471;55.908;37.880;2022-12-07T05:23:43;100987.47;;;-13.27;79.76
76590;BME280;65471;55.908;37.880;2022-12-07T05:26:10;100986.19;;;-13.41;79.92
76590;BME280;65471;55.908;37.880;2022-12-07T05:28:37;100978.44;;;-13.42;81.07
76590;BME280;65471;55.908;37.880;2022-12-07T05:31:04;100984.50;;;-13.42;80.17
76590;BME280;65471;55.908;37.880;2022-12-07T05:33:31;100984.72;;;-13.49;80.56
76590;BME280;65471;55.908;37.880;2022-12-07T05:35:57;100975.41;;;-13.57;80.62
76590;BME280;65471;55.908;37.880;2022-12-07T05:38:24;100975.91;;;-13.45;80.37
76590;BME280;65471;55.908;37.880;2022-12-07T05:40:54;100981.28;;;-13.50;80.76
76590;BME280;65471;55.908;37.880;2022-12-07T05:43:21;100979.50;;;-13.48;80.40
76590;BME280;65471;55.908;37.880;2022-12-07T05:45:48;100981.47;;;-13.56;81.31
76590;BME280;65471;55.908;37.880;2022-12-07T05:48:15;100969.09;;;-13.49;80.23
76590;BME280;65471;55.908;37.880;2022-12-07T05:50:42;100985.63;;;-13.50;81.78
76590;BME280;65471;55.908;37.880;2022-12-07T05:53:08;100977.22;;;-13.59;81.38
76590;BME280;65471;55.908;37.880;2022-12-07T05:55:35;100980.06;;;-13.40;81.11
76590;BME280;65471;55.908;37.880;2022-12-07T05:58:02;100975.59;;;-13.34;81.60
76590;BME280;65471;55.908;37.880;2022-12-07T06:00:47;100970.53;;;-13.39;81.44
76590;BME280;65471;55.908;37.880;2022-12-07T06:03:17;100971.19;;;-13.34;81.25
76590;BME280;65471;55.908;37.880;2022-12-07T06:05:43;100971.47;;;-13.42;81.81
76590;BME280;65471;55.908;37.880;2022-12-07T06:08:10;100975.88;;;-13.44;81.93
76590;BME280;65471;55.908;37.880;2022-12-07T06:10:37;100975.78;;;-13.41;81.61
76590;BME280;65471;55.908;37.880;2022-12-07T06:13:04;100978.56;;;-13.47;82.05
76590;BME280;65471;55.908;37.880;2022-12-07T06:15:31;100973.78;;;-13.34;81.89
76590;BME280;65471;55.908;37.880;2022-12-07T06:17:57;100970.97;;;-13.26;81.69
76590;BME280;65471;55.908;37.880;2022-12-07T06:20:24;100980.69;;;-13.33;82.34
76590;BME280;65471;55.908;37.880;2022-12-07T06:22:51;100978.88;;;-13.29;82.07
76590;BME280;65471;55.908;37.880;2022-12-07T06:25:18;100975.00;;;-13.17;81.97
76590;BME280;65471;55.908;37.880;2022-12-07T06:27:44;100975.66;;;-13.11;81.86
76590;BME280;65471;55.908;37.880;2022-12-07T06:30:11;100966.81;;;-13.07;81.60
76590;BME280;65471;55.908;37.880;2022-12-07T06:32:38;100969.47;;;-13.08;81.23
76590;BME280;65471;55.908;37.880;2022-12-07T06:35:05;100960.94;;;-13.12;81.92
76590;BME280;65471;55.908;37.880;2022-12-07T06:37:32;100969.19;;;-12.99;81.94
76590;BME280;65471;55.908;37.880;2022-12-07T06:39:59;100966.31;;;-12.91;81.86
76590;BME280;65471;55.908;37.880;2022-12-07T06:42:26;100965.19;;;-12.84;81.64
76590;BME280;65471;55.908;37.880;2022-12-07T06:44:53;100976.44;;;-12.82;81.91
76590;BME280;65471;55.908;37.880;2022-12-07T06:47:20;100969.94;;;-12.70;81.86
76590;BME280;65471;55.908;37.880;2022-12-07T06:50:07;100970.53;;;-12.62;81.36
76590;BME280;65471;55.908;37.880;2022-12-07T06:52:34;100973.97;;;-12.61;81.02
76590;BME280;65471;55.908;37.880;2022-12-07T06:55:01;100965.91;;;-12.54;81.74
76590;BME280;65471;55.908;37.880;2022-12-07T06:57:28;100968.06;;;-12.41;81.91
76590;BME280;65471;55.908;37.880;2022-12-07T06:59:55;100963.84;;;-12.45;81.64
76590;BME280;65471;55.908;37.880;2022-12-07T07:02:21;100964.91;;;-12.50;81.91
76590;BME280;65471;55.908;37.880;2022-12-07T07:04:48;100965.00;;;-12.29;82.03
76590;BME280;65471;55.908;37.880;2022-12-07T07:07:15;100964.25;;;-12.33;81.39
76590;BME280;65471;55.908;37.880;2022-12-07T07:09:42;100969.09;;;-12.22;81.70
76590;BME280;65471;55.908;37.880;2022-12-07T07:12:09;100974.41;;;-12.25;81.37
76590;BME280;65471;55.908;37.880;2022-12-07T07:14:35;100976.22;;;-12.27;81.60
76590;BME280;65471;55.908;37.880;2022-12-07T07:17:02;100970.94;;;-12.02;81.84
76590;BME280;65471;55.908;37.880;2022-12-07T07:19:29;100967.31;;;-11.98;81.30
76590;BME280;65471;55.908;37.880;2022-12-07T07:21:56;100966.84;;;-11.85;81.15
76590;BME280;65471;55.908;37.880;2022-12-07T07:24:23;100967.69;;;-11.85;80.74
76590;BME280;65471;55.908;37.880;2022-12-07T07:26:50;100963.31;;;-11.84;81.00
76590;BME280;65471;55.908;37.880;2022-12-07T07:29:17;100967.34;;;-11.75;80.75
76590;BME280;65471;55.908;37.880;2022-12-07T07:31:43;100970.25;;;-11.61;80.55
76590;BME280;65471;55.908;37.880;2022-12-07T07:34:10;100968.78;;;-11.68;80.34
76590;BME280;65471;55.908;37.880;2022-12-07T07:36:37;100962.59;;;-11.66;80.60
76590;BME280;65471;55.908;37.880;2022-12-07T07:39:04;100964.66;;;-11.52;80.38
76590;BME280;65471;55.908;37.880;2022-12-07T07:41:31;100961.16;;;-11.51;80.66
76590;BME280;65471;55.908;37.880;2022-12-07T07:43:58;100959.56;;;-11.33;80.36
76590;BME280;65471;55.908;37.880;2022-12-07T07:46:25;100951.97;;;-11.17;79.66
76590;BME280;65471;55.908;37.880;2022-12-07T07:48:51;100945.84;;;-11.16;79.42
76590;BME280;65471;55.908;37.880;2022-12-07T07:51:18;100943.22;;;-10.95;78.74
76590;BME280;65471;55.908;37.880;2022-12-07T07:53:45;100947.13;;;-11.05;79.47
76590;BME280;65471;55.908;37.880;2022-12-07T07:56:13;100956.81;;;-10.87;78.94
76590;BME280;65471;55.908;37.880;2022-12-07T07:58:39;100943.34;;;-10.78;78.26
76590;BME280;65471;55.908;37.880;2022-12-07T08:01:07;100949.69;;;-10.83;79.08
76590;BME280;65471;55.908;37.880;2022-12-07T08:03:34;100949.09;;;-10.69;78.22
76590;BME280;65471;55.908;37.880;2022-12-07T08:06:02;100941.13;;;-10.66;78.07
76590;BME280;65471;55.908;37.880;2022-12-07T08:08:30;100945.47;;;-10.46;76.81
76590;BME280;65471;55.908;37.880;2022-12-07T08:10:56;100938.34;;;-10.43;76.15
76590;BME280;65471;55.908;37.880;2022-12-07T08:13:27;100934.88;;;-10.43;76.30
76590;BME280;65471;55.908;37.880;2022-12-07T08:15:57;100923.44;;;-10.41;76.83
76590;BME280;65471;55.908;37.880;2022-12-07T08:18:23;100925.13;;;-10.39;76.25
76590;BME280;65471;55.908;37.880;2022-12-07T08:20:50;100927.34;;;-10.32;75.31
76590;BME280;65471;55.908;37.880;2022-12-07T08:23:17;100923.19;;;-10.34;76.14
76590;BME280;65471;55.908;37.880;2022-12-07T08:25:44;100921.81;;;-10.24;75.74
76590;BME280;65471;55.908;37.880;2022-12-07T08:28:11;100919.19;;;-10.24;75.64
76590;BME280;65471;55.908;37.880;2022-12-07T08:30:37;100915.59;;;-10.21;75.61
76590;BME280;65471;55.908;37.880;2022-12-07T08:33:04;100912.69;;;-10.15;75.78
76590;BME280;65471;55.908;37.880;2022-12-07T08:35:33;100920.97;;;-10.06;75.21
76590;BME280;65471;55.908;37.880;2022-12-07T08:38:00;100913.25;;;-10.09;75.35
76590;BME280;65471;55.908;37.880;2022-12-07T08:40:29;100912.38;;;-10.09;74.92
76590;BME280;65471;55.908;37.880;2022-12-07T08:42:56;100917.69;;;-10.11;74.57
76590;BME280;65471;55.908;37.880;2022-12-07T08:45:31;100913.47;;;-9.94;74.41
76590;BME280;65471;55.908;37.880;2022-12-07T08:48:10;100912.25;;;-10.06;73.02
76590;BME280;65471;55.908;37.880;2022-12-07T08:50:40;100914.16;;;-9.91;72.84
76590;BME280;65471;55.908;37.880;2022-12-07T08:53:20;100909.69;;;-10.08;73.19
76590;BME280;65471;55.908;37.880;2022-12-07T08:55:48;100909.28;;;-9.98;72.83
76590;BME280;65471;55.908;37.880;2022-12-07T08:58:15;100910.13;;;-9.98;73.39
76590;BME280;65471;55.908;37.880;2022-12-07T09:00:42;100902.34;;;-9.80;72.71
76590;BME280;65471;55.908;37.880;2022-12-07T09:03:08;100895.38;;;-9.99;72.61
76590;BME280;65471;55.908;37.880;2022-12-07T09:05:35;100895.91;;;-9.92;71.98
76590;BME280;65471;55.908;37.880;2022-12-07T09:08:02;100894.69;;;-9.85;72.80
76590;BME280;65471;55.908;37.880;2022-12-07T09:10:29;100897.03;;;-9.79;71.90
76590;BME280;65471;55.908;37.880;2022-12-07T09:12:57;100893.34;;;-9.75;71.44
76590;BME280;65471;55.908;37.880;2022-12-07T09:15:30;100896.66;;;-9.71;71.35
76590;BME280;65471;55.908;37.880;2022-12-07T09:17:58;100893.72;;;-9.65;71.71
76590;BME280;65471;55.908;37.880;2022-12-07T09:20:25;100892.56;;;-9.77;72.83
76590;BME280;65471;55.908;37.880;2022-12-07T09:22:53;100881.50;;;-9.64;71.79
76590;BME280;65471;55.908;37.880;2022-12-07T09:25:20;100884.13;;;-9.64;70.87
76590;BME280;65471;55.908;37.880;2022-12-07T09:27:47;100883.34;;;-9.66;70.74
76590;BME280;65471;55.908;37.880;2022-12-07T09:30:14;100880.38;;;-9.59;71.29
76590;BME280;65471;55.908;37.880;2022-12-07T09:32:41;100882.03;;;-9.58;70.78
76590;BME280;65471;55.908;37.880;2022-12-07T09:35:08;100868.94;;;-9.58;70.83
76590;BME280;65471;55.908;37.880;2022-12-07T09:37:36;100857.66;;;-9.58;71.12
76590;BME280;65471;55.908;37.880;2022-12-07T09:40:04;100860.66;;;-9.66;70.34
76590;BME280;65471;55.908;37.880;2022-12-07T09:42:39;100863.19;;;-9.64;70.35
76590;BME280;65471;55.908;37.880;2022-12-07T09:45:26;100862.97;;;-9.42;70.15
76590;BME280;65471;55.908;37.880;2022-12-07T09:47:54;100864.13;;;-9.48;70.07
76590;BME280;65471;55.908;37.880;2022-12-07T09:50:24;100861.81;;;-9.54;71.09
76590;BME280;65471;55.908;37.880;2022-12-07T09:52:52;100855.25;;;-9.45;70.63
76590;BME280;65471;55.908;37.880;2022-12-07T09:55:28;100854.59;;;-9.49;71.39
76590;BME280;65471;55.908;37.880;2022-12-07T09:57:55;100859.94;;;-9.52;69.88
76590;BME280;65471;55.908;37.880;2022-12-07T10:00:37;100857.81;;;-9.44;70.58
76590;BME280;65471;55.908;37.880;2022-12-07T10:03:04;100854.91;;;-9.38;70.05
76590;BME280;65471;55.908;37.880;2022-12-07T10:05:38;100861.50;;;-9.48;71.32
76590;BME280;65471;55.908;37.880;2022-12-07T10:08:09;100847.25;;;-9.42;70.71
76590;BME280;65471;55.908;37.880;2022-12-07T10:10:38;100846.25;;;-9.40;69.90
76590;BME280;65471;55.908;37.880;2022-12-07T10:13:11;100845.94;;;-9.33;69.63
76590;BME280;65471;55.908;37.880;2022-12-07T10:15:58;100841.09;;;-9.24;68.94
76590;BME280;65471;55.908;37.880;2022-12-07T10:18:38;100834.22;;;-9.26;69.06
76590;BME280;65471;55.908;37.880;2022-12-07T10:23:58;100837.31;;;-9.18;70.81
76590;BME280;65471;55.908;37.880;2022-12-07T10:26:30;100824.84;;;-9.30;70.82
76590;BME280;65471;55.908;37.880;2022-12-07T10:29:47;100822.75;;;-9.24;70.10
76590;BME280;65471;55.908;37.880;2022-12-07T10:34:36;100828.53;;;-9.17;69.74
76590;BME280;65471;55.908;37.880;2022-12-07T10:39:52;100825.28;;;-9.22;69.23
76590;BME280;65471;55.908;37.880;2022-12-07T10:42:23;100817.91;;;-9.31;71.23
76590;BME280;65471;55.908;37.880;2022-12-07T10:45:12;100822.00;;;-9.26;69.99
76590;BME280;65471;55.908;37.880;2022-12-07T10:54:44;100810.81;;;-9.12;68.64
76590;BME280;65471;55.908;37.880;2022-12-07T10:57:40;100812.81;;;-9.17;68.95
76590;BME280;65471;55.908;37.880;2022-12-07T11:00:21;100803.72;;;-9.10;67.77
76590;BME280;65471;55.908;37.880;2022-12-07T11:05:27;100805.09;;;-9.03;69.04
76590;BME280;65471;55.908;37.880;2022-12-07T11:08:09;100807.94;;;-9.07;69.48
76590;BME280;65471;55.908;37.880;2022-12-07T11:13:14;100794.22;;;-9.12;69.44
76590;BME280;65471;55.908;37.880;2022-12-07T11:18:29;100794.84;;;-9.07;68.93
76590;BME280;65471;55.908;37.880;2022-12-07T11:24:14;100781.22;;;-9.14;69.35
76590;BME280;65471;55.908;37.880;2022-12-07T11:27:06;100781.59;;;-9.04;68.78
76590;BME280;65471;55.908;37.880;2022-12-07T11:29:53;100776.84;;;-9.13;69.33
76590;BME280;65471;55.908;37.880;2022-12-07T11:37:32;100778.47;;;-9.28;70.15
76590;BME280;65471;55.908;37.880;2022-12-07T11:40:32;100778.31;;;-9.25;69.46
76590;BME280;65471;55.908;37.880;2022-12-07T11:43:22;100781.00;;;-9.27;71.68
76590;BME280;65471;55.908;37.880;2022-12-07T11:46:02;100767.53;;;-9.37;71.32
76590;BME280;65471;55.908;37.880;2022-12-07T11:48:35;100770.94;;;-9.34;71.86
76590;BME280;65471;55.908;37.880;2022-12-07T11:51:07;100770.16;;;-9.37;72.11
76590;BME280;65471;55.908;37.880;2022-12-07T11:53:43;100770.50;;;-9.43;72.35
76590;BME280;65471;55.908;37.880;2022-12-07T11:56:21;100773.34;;;-9.47;71.63
76590;BME280;65471;55.908;37.880;2022-12-07T11:59:02;100760.34;;;-9.49;71.76
76590;BME280;65471;55.908;37.880;2022-12-07T12:06:24;100755.22;;;-9.52;72.07
76590;BME280;65471;55.908;37.880;2022-12-07T12:08:57;100749.50;;;-9.59;72.86
76590;BME280;65471;55.908;37.880;2022-12-07T12:22:26;100748.72;;;-9.78;73.38
76590;BME280;65471;55.908;37.880;2022-12-07T12:24:55;100746.34;;;-9.83;73.98
76590;BME280;65471;55.908;37.880;2022-12-07T12:27:35;100747.88;;;-9.79;73.70
76590;BME280;65471;55.908;37.880;2022-12-07T12:32:53;100749.41;;;-9.92;73.40
76590;BME280;65471;55.908;37.880;2022-12-07T12:35:32;100745.06;;;-9.93;73.11
76590;BME280;65471;55.908;37.880;2022-12-07T12:38:32;100738.25;;;-9.96;73.86
76590;BME280;65471;55.908;37.880;2022-12-07T12:41:02;100731.63;;;-10.03;74.41
76590;BME280;65471;55.908;37.880;2022-12-07T12:43:59;100738.94;;;-10.10;75.09
76590;BME280;65471;55.908;37.880;2022-12-07T12:51:50;100745.47;;;-10.18;74.57
76590;BME280;65471;55.908;37.880;2022-12-07T12:59:38;100733.59;;;-10.26;75.31
76590;BME280;65471;55.908;37.880;2022-12-07T13:02:16;100730.63;;;-10.35;75.33
76590;BME280;65471;55.908;37.880;2022-12-07T13:04:53;100735.78;;;-10.34;75.33
76590;BME280;65471;55.908;37.880;2022-12-07T13:15:39;100734.59;;;-10.46;76.62
76590;BME280;65471;55.908;37.880;2022-12-07T13:26:24;100738.19;;;-10.67;77.25
76590;BME280;65471;55.908;37.880;2022-12-07T13:29:13;100737.28;;;-10.66;76.58
76590;BME280;65471;55.908;37.880;2022-12-07T13:31:44;100740.78;;;-10.66;77.61
76590;BME280;65471;55.908;37.880;2022-12-07T13:34:34;100734.06;;;-10.71;76.65
76590;BME280;65471;55.908;37.880;2022-12-07T13:37:15;100728.84;;;-10.71;76.90
76590;BME280;65471;55.908;37.880;2022-12-07T13:39:52;100737.66;;;-10.74;77.37
76590;BME280;65471;55.908;37.880;2022-12-07T13:42:28;100731.66;;;-10.76;77.56
76590;BME280;65471;55.908;37.880;2022-12-07T13:44:56;100727.75;;;-10.67;77.90
76590;BME280;65471;55.908;37.880;2022-12-07T13:49:57;100725.13;;;-10.67;77.83
76590;BME280;65471;55.908;37.880;2022-12-07T13:52:26;100729.19;;;-10.79;78.03
76590;BME280;65471;55.908;37.880;2022-12-07T13:55:05;100724.81;;;-10.79;77.30
76590;BME280;65471;55.908;37.880;2022-12-07T13:57:40;100722.91;;;-10.75;77.01
76590;BME280;65471;55.908;37.880;2022-12-07T14:00:25;100721.56;;;-10.84;78.05
76590;BME280;65471;55.908;37.880;2022-12-07T14:02:59;100722.53;;;-10.86;77.50
76590;BME280;65471;55.908;37.880;2022-12-07T14:05:29;100721.00;;;-10.90;77.92
76590;BME280;65471;55.908;37.880;2022-12-07T14:08:03;100719.28;;;-10.91;77.61
76590;BME280;65471;55.908;37.880;2022-12-07T14:10:34;100714.06;;;-10.91;77.89
76590;BME280;65471;55.908;37.880;2022-12-07T14:13:03;100711.19;;;-10.85;76.81
76590;BME280;65471;55.908;37.880;2022-12-07T14:15:52;100714.94;;;-10.91;77.53
76590;BME280;65471;55.908;37.880;2022-12-07T14:18:45;100714.50;;;-10.82;77.48
76590;BME280;65471;55.908;37.880;2022-12-07T14:23:40;100713.31;;;-10.94;78.16
76590;BME280;65471;55.908;37.880;2022-12-07T14:26:20;100710.97;;;-10.81;76.93
76590;BME280;65471;55.908;37.880;2022-12-07T14:28:47;100712.03;;;-10.85;77.31
76590;BME280;65471;55.908;37.880;2022-12-07T14:31:16;100705.06;;;-10.84;76.74
76590;BME280;65471;55.908;37.880;2022-12-07T14:33:51;100705.88;;;-10.84;76.83
76590;BME280;65471;55.908;37.880;2022-12-07T14:36:18;100701.44;;;-10.82;77.08
76590;BME280;65471;55.908;37.880;2022-12-07T14:38:45;100699.84;;;-10.84;77.29
76590;BME280;65471;55.908;37.880;2022-12-07T14:41:17;100692.91;;;-10.85;77.58
76590;BME280;65471;55.908;37.880;2022-12-07T14:44:13;100700.66;;;-10.84;77.48
76590;BME280;65471;55.908;37.880;2022-12-07T14:46:52;100695.75;;;-10.90;77.00
76590;BME280;65471;55.908;37.880;2022-12-07T14:49:40;100690.50;;;-10.90;77.30
76590;BME280;65471;55.908;37.880;2022-12-07T14:52:15;100691.06;;;-10.83;77.27
76590;BME280;65471;55.908;37.880;2022-12-07T14:55:03;100701.72;;;-10.88;76.92
76590;BME280;65471;55.908;37.880;2022-12-07T14:57:30;100698.34;;;-10.90;77.31